Terminal Aerodrome Forecast
Issued by NWS

Home | Current Version | Previous Version | Text Only | Print | Product List | Glossary On
Versions: 1 2 3 4 5 6 7 8 9 10 11 12 13 14 15
000
FTUS45 KSLC 242340
TAFLGU
TAF
KLGU 242340Z 2500/2524 17006KT 6SM -SHRA BR BKN030 OVC045
     FM250200 VRB05KT P6SM VCSH BKN050
     FM251200 33010KT P6SM -SHRA SCT025 BKN040
     FM252100 34008KT P6SM VCSH BKN050=

USA.gov is the U.S. government's official web portal to all federal, state and local government web resources and services.